sensor_id;sensor_type;location;lat;lon;timestamp;P1;durP1;ratioP1;P2;durP2;ratioP2
66127;SDS011;52925;52.436;-1.952;2024-01-16T05:12:35;2.80;;;1.40;;
66127;SDS011;52925;52.436;-1.952;2024-01-16T05:13:56;3.78;;;1.55;;
66127;SDS011;52925;52.436;-1.952;2024-01-16T05:15:16;3.95;;;1.58;;
66127;SDS011;52925;52.436;-1.952;2024-01-16T05:16:37;3.00;;;1.50;;
66127;SDS011;52925;52.436;-1.952;2024-01-16T05:17:57;3.72;;;1.50;;
66127;SDS011;52925;52.436;-1.952;2024-01-16T05:19:18;2.85;;;1.42;;
66127;SDS011;52925;52.436;-1.952;2024-01-16T05:20:38;5.07;;;1.58;;
66127;SDS011;52925;52.436;-1.952;2024-01-16T05:21:59;4.22;;;1.55;;
66127;SDS011;52925;52.436;-1.952;2024-01-16T05:23:19;3.10;;;1.55;;
66127;SDS011;52925;52.436;-1.952;2024-01-16T05:24:40;3.10;;;1.40;;
66127;SDS011;52925;52.436;-1.952;2024-01-16T05:26:00;4.03;;;1.60;;
66127;SDS011;52925;52.436;-1.952;2024-01-16T05:27:21;3.10;;;1.40;;
66127;SDS011;52925;52.436;-1.952;2024-01-16T05:28:42;4.60;;;1.60;;
66127;SDS011;52925;52.436;-1.952;2024-01-16T05:30:03;5.35;;;1.50;;
66127;SDS011;52925;52.436;-1.952;2024-01-16T05:31:24;3.72;;;1.40;;
66127;SDS011;52925;52.436;-1.952;2024-01-16T05:32:45;1.77;;;1.35;;
66127;SDS011;52925;52.436;-1.952;2024-01-16T05:34:04;5.57;;;1.40;;
66127;SDS011;52925;52.436;-1.952;2024-01-16T05:35:25;2.63;;;1.50;;
66127;SDS011;52925;52.436;-1.952;2024-01-16T05:36:45;3.63;;;1.38;;
66127;SDS011;52925;52.436;-1.952;2024-01-16T05:38:06;3.33;;;1.40;;
66127;SDS011;52925;52.436;-1.952;2024-01-16T05:39:26;3.55;;;1.33;;
66127;SDS011;52925;52.436;-1.952;2024-01-16T05:40:47;2.53;;;1.40;;
66127;SDS011;52925;52.436;-1.952;2024-01-16T05:42:07;2.97;;;1.52;;
66127;SDS011;52925;52.436;-1.952;2024-01-16T05:43:27;2.63;;;1.40;;
66127;SDS011;52925;52.436;-1.952;2024-01-16T05:44:49;3.10;;;1.27;;
66127;SDS011;52925;52.436;-1.952;2024-01-16T05:46:09;2.70;;;1.45;;
66127;SDS011;52925;52.436;-1.952;2024-01-16T05:47:30;2.95;;;1.55;;
66127;SDS011;52925;52.436;-1.952;2024-01-16T05:48:51;2.53;;;1.30;;
66127;SDS011;52925;52.436;-1.952;2024-01-16T05:50:11;3.15;;;1.20;;
66127;SDS011;52925;52.436;-1.952;2024-01-16T05:51:32;2.58;;;1.30;;
66127;SDS011;52925;52.436;-1.952;2024-01-16T05:52:52;4.13;;;1.30;;
66127;SDS011;52925;52.436;-1.952;2024-01-16T05:54:13;3.13;;;1.40;;
66127;SDS011;52925;52.436;-1.952;2024-01-16T05:55:33;3.22;;;1.30;;
66127;SDS011;52925;52.436;-1.952;2024-01-16T05:56:55;3.15;;;1.45;;
66127;SDS011;52925;52.436;-1.952;2024-01-16T05:58:15;1.83;;;1.17;;
66127;SDS011;52925;52.436;-1.952;2024-01-16T05:59:36;4.53;;;1.40;;
66127;SDS011;52925;52.436;-1.952;2024-01-16T06:00:57;3.08;;;1.65;;
66127;SDS011;52925;52.436;-1.952;2024-01-16T06:02:18;2.10;;;1.20;;
66127;SDS011;52925;52.436;-1.952;2024-01-16T06:03:37;2.92;;;1.52;;
66127;SDS011;52925;52.436;-1.952;2024-01-16T06:04:58;2.60;;;1.40;;
66127;SDS011;52925;52.436;-1.952;2024-01-16T06:06:18;2.85;;;1.52;;
66127;SDS011;52925;52.436;-1.952;2024-01-16T06:07:39;5.43;;;1.33;;
66127;SDS011;52925;52.436;-1.952;2024-01-16T06:08:59;1.85;;;1.20;;
66127;SDS011;52925;52.436;-1.952;2024-01-16T06:10:24;2.67;;;1.25;;
66127;SDS011;52925;52.436;-1.952;2024-01-16T06:11:43;2.00;;;1.15;;
66127;SDS011;52925;52.436;-1.952;2024-01-16T06:13:04;3.72;;;1.42;;
66127;SDS011;52925;52.436;-1.952;2024-01-16T06:14:24;3.35;;;1.10;;
66127;SDS011;52925;52.436;-1.952;2024-01-16T06:15:45;3.85;;;1.30;;
66127;SDS011;52925;52.436;-1.952;2024-01-16T06:17:06;2.97;;;1.23;;
66127;SDS011;52925;52.436;-1.952;2024-01-16T06:18:27;3.53;;;1.13;;
66127;SDS011;52925;52.436;-1.952;2024-01-16T06:19:47;3.45;;;1.30;;
66127;SDS011;52925;52.436;-1.952;2024-01-16T06:21:07;4.45;;;1.23;;
66127;SDS011;52925;52.436;-1.952;2024-01-16T06:22:29;2.40;;;1.10;;
66127;SDS011;52925;52.436;-1.952;2024-01-16T06:23:50;1.38;;;1.00;;
66127;SDS011;52925;52.436;-1.952;2024-01-16T06:25:10;3.00;;;1.15;;
66127;SDS011;52925;52.436;-1.952;2024-01-16T06:26:30;2.17;;;1.38;;
66127;SDS011;52925;52.436;-1.952;2024-01-16T06:27:51;2.13;;;1.05;;
66127;SDS011;52925;52.436;-1.952;2024-01-16T06:29:11;3.22;;;1.00;;
66127;SDS011;52925;52.436;-1.952;2024-01-16T06:30:32;4.10;;;1.52;;
66127;SDS011;52925;52.436;-1.952;2024-01-16T06:31:53;3.00;;;1.30;;
66127;SDS011;52925;52.436;-1.952;2024-01-16T06:33:14;5.05;;;1.27;;
66127;SDS011;52925;52.436;-1.952;2024-01-16T06:34:35;1.75;;;0.90;;
66127;SDS011;52925;52.436;-1.952;2024-01-16T06:35:55;3.35;;;1.05;;
66127;SDS011;52925;52.436;-1.952;2024-01-16T06:37:15;2.50;;;1.10;;
66127;SDS011;52925;52.436;-1.952;2024-01-16T06:38:37;2.72;;;1.23;;
66127;SDS011;52925;52.436;-1.952;2024-01-16T06:39:58;3.35;;;1.48;;
66127;SDS011;52925;52.436;-1.952;2024-01-16T06:41:18;2.20;;;1.10;;
66127;SDS011;52925;52.436;-1.952;2024-01-16T06:42:39;2.15;;;1.05;;
66127;SDS011;52925;52.436;-1.952;2024-01-16T06:43:59;2.50;;;1.00;;
66127;SDS011;52925;52.436;-1.952;2024-01-16T06:45:20;2.42;;;1.05;;
66127;SDS011;52925;52.436;-1.952;2024-01-16T06:46:40;2.67;;;1.17;;
66127;SDS011;52925;52.436;-1.952;2024-01-16T06:48:01;4.25;;;1.38;;
66127;SDS011;52925;52.436;-1.952;2024-01-16T06:49:22;1.73;;;0.95;;
66127;SDS011;52925;52.436;-1.952;2024-01-16T06:50:43;4.03;;;1.23;;
66127;SDS011;52925;52.436;-1.952;2024-01-16T06:52:02;2.63;;;0.88;;
66127;SDS011;52925;52.436;-1.952;2024-01-16T06:53:23;2.83;;;1.10;;
66127;SDS011;52925;52.436;-1.952;2024-01-16T06:54:44;4.43;;;1.27;;
66127;SDS011;52925;52.436;-1.952;2024-01-16T06:56:05;3.30;;;0.90;;
66127;SDS011;52925;52.436;-1.952;2024-01-16T06:57:26;2.85;;;1.25;;
66127;SDS011;52925;52.436;-1.952;2024-01-16T06:58:47;3.83;;;1.00;;
66127;SDS011;52925;52.436;-1.952;2024-01-16T07:00:07;1.60;;;1.10;;
66127;SDS011;52925;52.436;-1.952;2024-01-16T07:01:28;2.85;;;1.10;;
66127;SDS011;52925;52.436;-1.952;2024-01-16T07:02:50;3.13;;;1.10;;
66127;SDS011;52925;52.436;-1.952;2024-01-16T07:04:10;2.80;;;1.20;;
66127;SDS011;52925;52.436;-1.952;2024-01-16T07:05:32;4.28;;;1.20;;
66127;SDS011;52925;52.436;-1.952;2024-01-16T07:06:53;2.05;;;1.10;;
66127;SDS011;52925;52.436;-1.952;2024-01-16T07:08:13;1.80;;;1.10;;
66127;SDS011;52925;52.436;-1.952;2024-01-16T07:09:34;1.90;;;1.00;;
66127;SDS011;52925;52.436;-1.952;2024-01-16T07:10:54;3.20;;;1.00;;
66127;SDS011;52925;52.436;-1.952;2024-01-16T07:12:15;4.05;;;1.08;;
66127;SDS011;52925;52.436;-1.952;2024-01-16T07:13:35;2.83;;;1.10;;
66127;SDS011;52925;52.436;-1.952;2024-01-16T07:14:56;4.75;;;1.33;;
66127;SDS011;52925;52.436;-1.952;2024-01-16T07:16:16;2.50;;;1.10;;
66127;SDS011;52925;52.436;-1.952;2024-01-16T16:38:13;4.43;;;1.60;;
66127;SDS011;52925;52.436;-1.952;2024-01-16T16:39:34;3.85;;;2.00;;
66127;SDS011;52925;52.436;-1.952;2024-01-16T16:40:54;3.40;;;1.92;;
66127;SDS011;52925;52.436;-1.952;2024-01-16T16:42:15;3.75;;;2.13;;
66127;SDS011;52925;52.436;-1.952;2024-01-16T16:43:38;4.15;;;2.40;;
66127;SDS011;52925;52.436;-1.952;2024-01-16T16:44:58;6.90;;;2.67;;
66127;SDS011;52925;52.436;-1.952;2024-01-16T16:46:19;4.13;;;2.33;;
66127;SDS011;52925;52.436;-1.952;2024-01-16T16:47:40;4.63;;;2.60;;
66127;SDS011;52925;52.436;-1.952;2024-01-16T16:49:01;4.53;;;2.40;;
66127;SDS011;52925;52.436;-1.952;2024-01-16T16:50:21;3.95;;;2.60;;
66127;SDS011;52925;52.436;-1.952;2024-01-16T16:51:42;4.82;;;2.60;;
66127;SDS011;52925;52.436;-1.952;2024-01-16T16:53:02;3.88;;;2.30;;
66127;SDS011;52925;52.436;-1.952;2024-01-16T16:54:26;5.47;;;2.85;;
66127;SDS011;52925;52.436;-1.952;2024-01-16T16:55:48;7.20;;;3.10;;
66127;SDS011;52925;52.436;-1.952;2024-01-16T16:57:08;4.45;;;2.65;;
66127;SDS011;52925;52.436;-1.952;2024-01-16T16:58:29;5.05;;;2.50;;
66127;SDS011;52925;52.436;-1.952;2024-01-16T16:59:50;8.02;;;2.78;;
66127;SDS011;52925;52.436;-1.952;2024-01-16T17:01:11;4.22;;;2.60;;
66127;SDS011;52925;52.436;-1.952;2024-01-16T17:02:31;3.78;;;2.80;;
66127;SDS011;52925;52.436;-1.952;2024-01-16T17:03:52;4.28;;;2.80;;
66127;SDS011;52925;52.436;-1.952;2024-01-16T17:05:12;5.28;;;3.13;;
66127;SDS011;52925;52.436;-1.952;2024-01-16T17:06:33;9.77;;;2.80;;
66127;SDS011;52925;52.436;-1.952;2024-01-16T17:07:53;5.32;;;3.40;;
66127;SDS011;52925;52.436;-1.952;2024-01-16T17:09:13;5.68;;;2.80;;
66127;SDS011;52925;52.436;-1.952;2024-01-16T17:10:39;5.80;;;3.17;;
66127;SDS011;52925;52.436;-1.952;2024-01-16T17:12:02;3.65;;;2.60;;
66127;SDS011;52925;52.436;-1.952;2024-01-16T17:13:22;5.10;;;3.25;;
66127;SDS011;52925;52.436;-1.952;2024-01-16T17:14:43;5.78;;;2.63;;
66127;SDS011;52925;52.436;-1.952;2024-01-16T17:16:03;4.43;;;3.10;;
66127;SDS011;52925;52.436;-1.952;2024-01-16T17:17:25;5.78;;;3.25;;
66127;SDS011;52925;52.436;-1.952;2024-01-16T17:18:45;6.63;;;3.50;;
66127;SDS011;52925;52.436;-1.952;2024-01-16T17:20:07;5.13;;;3.25;;
66127;SDS011;52925;52.436;-1.952;2024-01-16T17:21:31;4.05;;;3.15;;
66127;SDS011;52925;52.436;-1.952;2024-01-16T17:22:52;4.88;;;3.53;;
66127;SDS011;52925;52.436;-1.952;2024-01-16T17:24:13;8.32;;;3.95;;
66127;SDS011;52925;52.436;-1.952;2024-01-16T17:25:34;5.22;;;3.40;;
66127;SDS011;52925;52.436;-1.952;2024-01-16T17:26:55;5.60;;;3.20;;
66127;SDS011;52925;52.436;-1.952;2024-01-16T17:28:16;5.97;;;3.78;;
66127;SDS011;52925;52.436;-1.952;2024-01-16T17:29:38;5.60;;;3.55;;
66127;SDS011;52925;52.436;-1.952;2024-01-16T17:30:59;5.30;;;3.80;;
66127;SDS011;52925;52.436;-1.952;2024-01-16T17:32:19;4.78;;;3.42;;
66127;SDS011;52925;52.436;-1.952;2024-01-16T17:33:40;4.72;;;3.40;;
66127;SDS011;52925;52.436;-1.952;2024-01-16T17:35:02;6.35;;;3.50;;
66127;SDS011;52925;52.436;-1.952;2024-01-16T17:36:23;4.53;;;3.35;;
66127;SDS011;52925;52.436;-1.952;2024-01-16T17:37:43;4.78;;;3.28;;
66127;SDS011;52925;52.436;-1.952;2024-01-16T17:39:05;6.13;;;3.45;;
66127;SDS011;52925;52.436;-1.952;2024-01-16T17:40:29;6.50;;;3.72;;
66127;SDS011;52925;52.436;-1.952;2024-01-16T17:41:50;7.47;;;3.88;;
66127;SDS011;52925;52.436;-1.952;2024-01-16T17:43:11;6.55;;;3.78;;
66127;SDS011;52925;52.436;-1.952;2024-01-16T17:44:32;6.88;;;4.13;;
66127;SDS011;52925;52.436;-1.952;2024-01-16T17:45:56;5.53;;;3.70;;
66127;SDS011;52925;52.436;-1.952;2024-01-16T17:51:31;6.70;;;3.80;;
66127;SDS011;52925;52.436;-1.952;2024-01-16T17:52:52;7.18;;;3.92;;
66127;SDS011;52925;52.436;-1.952;2024-01-16T17:54:11;7.50;;;3.72;;
66127;SDS011;52925;52.436;-1.952;2024-01-16T17:55:33;8.10;;;3.88;;
66127;SDS011;52925;52.436;-1.952;2024-01-16T17:56:53;5.70;;;3.97;;
66127;SDS011;52925;52.436;-1.952;2024-01-16T17:58:16;8.95;;;4.28;;
66127;SDS011;52925;52.436;-1.952;2024-01-16T17:59:40;6.68;;;3.78;;
66127;SDS011;52925;52.436;-1.952;2024-01-16T18:01:01;5.63;;;3.60;;
66127;SDS011;52925;52.436;-1.952;2024-01-16T18:02:26;7.13;;;3.55;;
66127;SDS011;52925;52.436;-1.952;2024-01-16T18:03:47;6.25;;;3.67;;
66127;SDS011;52925;52.436;-1.952;2024-01-16T18:05:08;6.22;;;3.80;;
66127;SDS011;52925;52.436;-1.952;2024-01-16T18:06:35;5.50;;;3.70;;
66127;SDS011;52925;52.436;-1.952;2024-01-16T18:07:55;7.78;;;3.70;;
66127;SDS011;52925;52.436;-1.952;2024-01-16T18:09:16;6.60;;;3.88;;
66127;SDS011;52925;52.436;-1.952;2024-01-16T18:10:36;7.65;;;3.83;;
66127;SDS011;52925;52.436;-1.952;2024-01-16T18:11:57;7.40;;;4.03;;
66127;SDS011;52925;52.436;-1.952;2024-01-16T18:13:19;6.93;;;3.67;;
66127;SDS011;52925;52.436;-1.952;2024-01-16T18:14:41;8.10;;;3.67;;
66127;SDS011;52925;52.436;-1.952;2024-01-16T18:16:00;7.40;;;4.18;;
66127;SDS011;52925;52.436;-1.952;2024-01-16T18:17:23;6.30;;;3.50;;
66127;SDS011;52925;52.436;-1.952;2024-01-16T18:18:43;5.45;;;3.67;;
66127;SDS011;52925;52.436;-1.952;2024-01-16T18:20:05;6.15;;;3.65;;
66127;SDS011;52925;52.436;-1.952;2024-01-16T18:21:26;5.82;;;3.60;;
66127;SDS011;52925;52.436;-1.952;2024-01-16T18:22:47;5.05;;;3.60;;
66127;SDS011;52925;52.436;-1.952;2024-01-16T18:24:09;5.78;;;3.70;;
66127;SDS011;52925;52.436;-1.952;2024-01-16T18:25:30;5.43;;;3.60;;
66127;SDS011;52925;52.436;-1.952;2024-01-16T18:26:51;6.78;;;3.58;;
66127;SDS011;52925;52.436;-1.952;2024-01-16T18:28:12;6.25;;;3.72;;
66127;SDS011;52925;52.436;-1.952;2024-01-16T18:29:34;5.40;;;3.42;;
66127;SDS011;52925;52.436;-1.952;2024-01-16T18:30:56;4.63;;;3.38;;
66127;SDS011;52925;52.436;-1.952;2024-01-16T18:32:16;5.13;;;3.30;;
66127;SDS011;52925;52.436;-1.952;2024-01-16T18:33:37;4.20;;;3.30;;
66127;SDS011;52925;52.436;-1.952;2024-01-16T18:34:57;5.88;;;3.50;;
66127;SDS011;52925;52.436;-1.952;2024-01-16T18:36:18;7.93;;;3.95;;
66127;SDS011;52925;52.436;-1.952;2024-01-16T18:37:39;4.93;;;3.25;;
66127;SDS011;52925;52.436;-1.952;2024-01-16T18:39:01;4.82;;;3.33;;
66127;SDS011;52925;52.436;-1.952;2024-01-16T18:40:22;6.60;;;3.75;;
66127;SDS011;52925;52.436;-1.952;2024-01-16T18:41:45;7.35;;;3.72;;
66127;SDS011;52925;52.436;-1.952;2024-01-16T18:43:06;6.07;;;3.65;;
66127;SDS011;52925;52.436;-1.952;2024-01-16T18:44:27;6.63;;;3.72;;
66127;SDS011;52925;52.436;-1.952;2024-01-16T18:45:48;6.18;;;3.90;;
66127;SDS011;52925;52.436;-1.952;2024-01-16T18:47:11;6.45;;;3.60;;
66127;SDS011;52925;52.436;-1.952;2024-01-16T18:48:30;5.05;;;3.58;;
66127;SDS011;52925;52.436;-1.952;2024-01-16T18:49:53;6.72;;;3.45;;
66127;SDS011;52925;52.436;-1.952;2024-01-16T18:51:13;4.80;;;3.45;;
66127;SDS011;52925;52.436;-1.952;2024-01-16T18:52:36;6.45;;;3.92;;
66127;SDS011;52925;52.436;-1.952;2024-01-16T18:53:58;5.57;;;3.30;;
66127;SDS011;52925;52.436;-1.952;2024-01-16T18:55:18;5.70;;;3.20;;
66127;SDS011;52925;52.436;-1.952;2024-01-16T18:56:38;6.03;;;3.60;;
66127;SDS011;52925;52.436;-1.952;2024-01-16T18:57:59;6.53;;;3.80;;
66127;SDS011;52925;52.436;-1.952;2024-01-16T18:59:22;6.50;;;3.50;;
66127;SDS011;52925;52.436;-1.952;2024-01-16T19:00:43;6.80;;;3.15;;
66127;SDS011;52925;52.436;-1.952;2024-01-16T19:02:04;6.82;;;3.55;;
66127;SDS011;52925;52.436;-1.952;2024-01-16T19:03:26;4.90;;;3.08;;
66127;SDS011;52925;52.436;-1.952;2024-01-16T19:04:46;6.40;;;3.47;;
66127;SDS011;52925;52.436;-1.952;2024-01-16T19:06:06;5.75;;;3.50;;
66127;SDS011;52925;52.436;-1.952;2024-01-16T19:07:31;7.72;;;3.38;;
66127;SDS011;52925;52.436;-1.952;2024-01-16T19:08:53;5.25;;;3.85;;
66127;SDS011;52925;52.436;-1.952;2024-01-16T19:10:13;6.13;;;3.50;;
66127;SDS011;52925;52.436;-1.952;2024-01-16T19:11:35;4.97;;;3.40;;
66127;SDS011;52925;52.436;-1.952;2024-01-16T19:12:56;7.03;;;3.95;;
66127;SDS011;52925;52.436;-1.952;2024-01-16T19:14:17;6.90;;;4.10;;
66127;SDS011;52925;52.436;-1.952;2024-01-16T19:15:37;5.13;;;3.45;;
66127;SDS011;52925;52.436;-1.952;2024-01-16T19:16:57;6.25;;;3.42;;
66127;SDS011;52925;52.436;-1.952;2024-01-16T19:18:19;5.00;;;3.50;;
66127;SDS011;52925;52.436;-1.952;2024-01-16T19:19:40;5.43;;;3.70;;
66127;SDS011;52925;52.436;-1.952;2024-01-16T19:21:00;7.20;;;3.75;;
66127;SDS011;52925;52.436;-1.952;2024-01-16T19:22:22;9.82;;;3.65;;
66127;SDS011;52925;52.436;-1.952;2024-01-16T19:23:42;5.03;;;3.30;;
66127;SDS011;52925;52.436;-1.952;2024-01-16T19:25:04;7.45;;;3.67;;
66127;SDS011;52925;52.436;-1.952;2024-01-16T19:26:26;5.22;;;3.33;;
66127;SDS011;52925;52.436;-1.952;2024-01-16T19:27:47;6.13;;;3.90;;
66127;SDS011;52925;52.436;-1.952;2024-01-16T19:29:07;7.57;;;4.00;;
66127;SDS011;52925;52.436;-1.952;2024-01-16T19:30:28;5.65;;;3.70;;
66127;SDS011;52925;52.436;-1.952;2024-01-16T19:31:48;4.90;;;3.88;;
66127;SDS011;52925;52.436;-1.952;2024-01-16T19:33:10;5.40;;;3.80;;
66127;SDS011;52925;52.436;-1.952;2024-01-16T19:34:32;5.75;;;3.75;;
66127;SDS011;52925;52.436;-1.952;2024-01-16T19:35:52;11.25;;;4.15;;
66127;SDS011;52925;52.436;-1.952;2024-01-16T19:37:13;6.82;;;4.15;;
66127;SDS011;52925;52.436;-1.952;2024-01-16T19:38:33;7.43;;;3.50;;
66127;SDS011;52925;52.436;-1.952;2024-01-16T19:39:54;7.53;;;3.08;;
66127;SDS011;52925;52.436;-1.952;2024-01-16T19:41:15;6.20;;;4.00;;
66127;SDS011;52925;52.436;-1.952;2024-01-16T19:42:35;5.63;;;3.90;;
66127;SDS011;52925;52.436;-1.952;2024-01-16T19:43:56;6.50;;;4.03;;
66127;SDS011;52925;52.436;-1.952;2024-01-16T19:45:16;5.35;;;3.60;;
66127;SDS011;52925;52.436;-1.952;2024-01-16T19:46:38;7.28;;;4.03;;
66127;SDS011;52925;52.436;-1.952;2024-01-16T19:47:59;6.25;;;3.88;;
66127;SDS011;52925;52.436;-1.952;2024-01-16T19:49:20;6.28;;;3.58;;
66127;SDS011;52925;52.436;-1.952;2024-01-16T19:50:41;5.88;;;4.05;;
66127;SDS011;52925;52.436;-1.952;2024-01-16T19:52:03;7.00;;;4.15;;
66127;SDS011;52925;52.436;-1.952;2024-01-16T19:53:23;6.78;;;3.92;;
66127;SDS011;52925;52.436;-1.952;2024-01-16T19:54:43;7.05;;;4.05;;
66127;SDS011;52925;52.436;-1.952;2024-01-16T19:56:03;7.18;;;4.10;;
66127;SDS011;52925;52.436;-1.952;2024-01-16T19:57:26;6.82;;;3.40;;
66127;SDS011;52925;52.436;-1.952;2024-01-16T19:58:47;8.80;;;4.45;;
66127;SDS011;52925;52.436;-1.952;2024-01-16T20:00:09;7.63;;;4.10;;
66127;SDS011;52925;52.436;-1.952;2024-01-16T20:01:31;7.45;;;3.67;;
66127;SDS011;52925;52.436;-1.952;2024-01-16T20:02:53;7.63;;;4.55;;
66127;SDS011;52925;52.436;-1.952;2024-01-16T20:04:13;6.53;;;4.05;;
66127;SDS011;52925;52.436;-1.952;2024-01-16T20:05:35;6.90;;;4.22;;
66127;SDS011;52925;52.436;-1.952;2024-01-16T20:06:58;8.70;;;4.50;;
66127;SDS011;52925;52.436;-1.952;2024-01-16T20:08:19;9.07;;;5.30;;
66127;SDS011;52925;52.436;-1.952;2024-01-16T20:09:39;7.60;;;4.32;;
66127;SDS011;52925;52.436;-1.952;2024-01-16T20:11:00;6.75;;;4.25;;
66127;SDS011;52925;52.436;-1.952;2024-01-16T20:12:19;6.25;;;4.40;;
66127;SDS011;52925;52.436;-1.952;2024-01-16T20:13:40;7.32;;;4.22;;
66127;SDS011;52925;52.436;-1.952;2024-01-16T20:15:00;6.13;;;3.78;;
66127;SDS011;52925;52.436;-1.952;2024-01-16T20:16:21;7.75;;;4.43;;
66127;SDS011;52925;52.436;-1.952;2024-01-16T20:17:42;5.70;;;3.90;;
66127;SDS011;52925;52.436;-1.952;2024-01-16T20:19:03;6.57;;;4.70;;
66127;SDS011;52925;52.436;-1.952;2024-01-16T20:20:24;7.40;;;4.57;;
66127;SDS011;52925;52.436;-1.952;2024-01-16T20:21:45;7.70;;;4.20;;
66127;SDS011;52925;52.436;-1.952;2024-01-16T20:23:07;7.05;;;3.88;;
66127;SDS011;52925;52.436;-1.952;2024-01-16T20:24:28;6.80;;;4.13;;
66127;SDS011;52925;52.436;-1.952;2024-01-16T20:25:50;5.70;;;3.80;;
66127;SDS011;52925;52.436;-1.952;2024-01-16T20:27:11;6.68;;;3.92;;
66127;SDS011;52925;52.436;-1.952;2024-01-16T20:28:31;7.05;;;4.00;;
66127;SDS011;52925;52.436;-1.952;2024-01-16T20:29:52;6.07;;;3.92;;
66127;SDS011;52925;52.436;-1.952;2024-01-16T20:31:12;7.32;;;3.97;;
66127;SDS011;52925;52.436;-1.952;2024-01-16T20:32:34;7.00;;;3.90;;
66127;SDS011;52925;52.436;-1.952;2024-01-16T20:33:59;6.93;;;4.13;;
66127;SDS011;52925;52.436;-1.952;2024-01-16T20:35:19;7.25;;;4.20;;
66127;SDS011;52925;52.436;-1.952;2024-01-16T20:36:44;7.28;;;3.60;;
66127;SDS011;52925;52.436;-1.952;2024-01-16T20:38:12;5.95;;;4.03;;
66127;SDS011;52925;52.436;-1.952;2024-01-16T20:39:31;6.75;;;3.65;;
66127;SDS011;52925;52.436;-1.952;2024-01-16T20:40:53;8.60;;;3.92;;
66127;SDS011;52925;52.436;-1.952;2024-01-16T20:42:13;5.95;;;3.67;;
66127;SDS011;52925;52.436;-1.952;2024-01-16T20:43:34;6.85;;;3.75;;
66127;SDS011;52925;52.436;-1.952;2024-01-16T20:44:55;5.22;;;3.65;;
66127;SDS011;52925;52.436;-1.952;2024-01-16T20:46:15;8.18;;;3.72;;
66127;SDS011;52925;52.436;-1.952;2024-01-16T20:47:36;7.15;;;3.97;;
66127;SDS011;52925;52.436;-1.952;2024-01-16T20:48:58;5.03;;;3.50;;
66127;SDS011;52925;52.436;-1.952;2024-01-16T20:50:20;8.40;;;4.30;;
66127;SDS011;52925;52.436;-1.952;2024-01-16T20:51:41;4.82;;;3.15;;
66127;SDS011;52925;52.436;-1.952;2024-01-16T20:53:02;6.15;;;3.65;;
66127;SDS011;52925;52.436;-1.952;2024-01-16T20:54:25;5.82;;;3.83;;
66127;SDS011;52925;52.436;-1.952;2024-01-16T20:55:44;6.65;;;3.67;;
66127;SDS011;52925;52.436;-1.952;2024-01-16T20:57:06;6.82;;;4.10;;
66127;SDS011;52925;52.436;-1.952;2024-01-16T20:58:26;7.13;;;4.47;;
66127;SDS011;52925;52.436;-1.952;2024-01-16T20:59:47;7.03;;;4.18;;
66127;SDS011;52925;52.436;-1.952;2024-01-16T21:01:07;7.18;;;4.07;;
66127;SDS011;52925;52.436;-1.952;2024-01-16T21:02:28;6.32;;;4.40;;
66127;SDS011;52925;52.436;-1.952;2024-01-16T21:03:48;6.15;;;4.10;;
66127;SDS011;52925;52.436;-1.952;2024-01-16T21:05:09;6.38;;;4.88;;
66127;SDS011;52925;52.436;-1.952;2024-01-16T21:06:29;6.57;;;4.40;;
66127;SDS011;52925;52.436;-1.952;2024-01-16T21:07:50;6.13;;;4.22;;
66127;SDS011;52925;52.436;-1.952;2024-01-16T21:09:10;8.63;;;5.35;;
66127;SDS011;52925;52.436;-1.952;2024-01-16T21:10:36;9.32;;;4.60;;
66127;SDS011;52925;52.436;-1.952;2024-01-16T21:11:55;8.82;;;5.40;;
66127;SDS011;52925;52.436;-1.952;2024-01-16T21:13:17;7.75;;;4.60;;
66127;SDS011;52925;52.436;-1.952;2024-01-16T21:14:37;6.47;;;4.57;;
66127;SDS011;52925;52.436;-1.952;2024-01-16T21:15:58;7.45;;;5.15;;
66127;SDS011;52925;52.436;-1.952;2024-01-16T21:17:20;7.68;;;4.43;;
66127;SDS011;52925;52.436;-1.952;2024-01-16T21:18:42;6.15;;;4.43;;
66127;SDS011;52925;52.436;-1.952;2024-01-16T21:20:04;8.35;;;5.20;;
66127;SDS011;52925;52.436;-1.952;2024-01-16T21:21:26;8.63;;;5.50;;
66127;SDS011;52925;52.436;-1.952;2024-01-16T21:22:47;6.68;;;4.72;;
66127;SDS011;52925;52.436;-1.952;2024-01-16T21:24:06;8.05;;;5.20;;
66127;SDS011;52925;52.436;-1.952;2024-01-16T21:25:27;8.27;;;5.30;;
66127;SDS011;52925;52.436;-1.952;2024-01-16T21:26:48;7.53;;;4.93;;
66127;SDS011;52925;52.436;-1.952;2024-01-16T21:28:09;7.90;;;5.15;;
66127;SDS011;52925;52.436;-1.952;2024-01-16T21:29:29;8.32;;;5.15;;
66127;SDS011;52925;52.436;-1.952;2024-01-16T21:30:50;8.20;;;4.82;;
66127;SDS011;52925;52.436;-1.952;2024-01-16T21:32:10;7.80;;;5.30;;
66127;SDS011;52925;52.436;-1.952;2024-01-16T21:33:31;7.68;;;5.22;;
66127;SDS011;52925;52.436;-1.952;2024-01-16T21:34:51;6.70;;;5.00;;
66127;SDS011;52925;52.436;-1.952;2024-01-16T21:36:12;7.03;;;5.13;;
66127;SDS011;52925;52.436;-1.952;2024-01-16T21:37:32;9.23;;;5.47;;
66127;SDS011;52925;52.436;-1.952;2024-01-16T21:38:53;11.68;;;5.75;;
66127;SDS011;52925;52.436;-1.952;2024-01-16T21:40:13;9.48;;;5.75;;
66127;SDS011;52925;52.436;-1.952;2024-01-16T21:41:34;9.05;;;5.72;;
66127;SDS011;52925;52.436;-1.952;2024-01-16T21:42:56;7.78;;;5.55;;
66127;SDS011;52925;52.436;-1.952;2024-01-16T21:44:17;6.80;;;4.90;;
66127;SDS011;52925;52.436;-1.952;2024-01-16T21:45:37;9.30;;;5.47;;
66127;SDS011;52925;52.436;-1.952;2024-01-16T21:46:58;10.23;;;5.38;;
66127;SDS011;52925;52.436;-1.952;2024-01-16T21:48:18;8.10;;;4.97;;
66127;SDS011;52925;52.436;-1.952;2024-01-16T21:49:39;9.52;;;5.40;;
66127;SDS011;52925;52.436;-1.952;2024-01-16T21:51:00;9.50;;;5.82;;
66127;SDS011;52925;52.436;-1.952;2024-01-16T21:52:21;8.80;;;5.35;;
66127;SDS011;52925;52.436;-1.952;2024-01-16T21:53:41;7.93;;;5.25;;
66127;SDS011;52925;52.436;-1.952;2024-01-16T21:55:02;8.43;;;5.72;;
66127;SDS011;52925;52.436;-1.952;2024-01-16T21:56:22;9.43;;;5.60;;
66127;SDS011;52925;52.436;-1.952;2024-01-16T21:57:43;9.73;;;5.50;;
66127;SDS011;52925;52.436;-1.952;2024-01-16T21:59:05;10.02;;;5.57;;
66127;SDS011;52925;52.436;-1.952;2024-01-16T22:00:25;12.75;;;5.95;;
66127;SDS011;52925;52.436;-1.952;2024-01-16T22:01:45;8.43;;;6.00;;
66127;SDS011;52925;52.436;-1.952;2024-01-16T22:03:06;8.38;;;5.93;;
66127;SDS011;52925;52.436;-1.952;2024-01-16T22:04:26;9.57;;;5.90;;
66127;SDS011;52925;52.436;-1.952;2024-01-16T22:05:47;9.98;;;5.90;;
66127;SDS011;52925;52.436;-1.952;2024-01-16T22:07:07;8.27;;;5.47;;
66127;SDS011;52925;52.436;-1.952;2024-01-16T22:08:28;6.40;;;4.95;;
66127;SDS011;52925;52.436;-1.952;2024-01-16T22:09:47;7.15;;;4.97;;
66127;SDS011;52925;52.436;-1.952;2024-01-16T22:11:08;8.25;;;5.25;;
66127;SDS011;52925;52.436;-1.952;2024-01-16T22:12:28;7.20;;;5.47;;
66127;SDS011;52925;52.436;-1.952;2024-01-16T22:13:49;7.32;;;5.03;;
66127;SDS011;52925;52.436;-1.952;2024-01-16T22:15:10;7.97;;;5.07;;
66127;SDS011;52925;52.436;-1.952;2024-01-16T22:16:31;8.35;;;5.20;;
66127;SDS011;52925;52.436;-1.952;2024-01-16T22:17:51;9.05;;;5.35;;
66127;SDS011;52925;52.436;-1.952;2024-01-16T22:19:14;7.53;;;4.93;;
66127;SDS011;52925;52.436;-1.952;2024-01-16T22:20:34;6.82;;;4.95;;
66127;SDS011;52925;52.436;-1.952;2024-01-16T22:21:55;8.23;;;5.07;;
66127;SDS011;52925;52.436;-1.952;2024-01-16T22:23:14;7.40;;;5.03;;
66127;SDS011;52925;52.436;-1.952;2024-01-16T22:24:35;8.43;;;4.63;;
66127;SDS011;52925;52.436;-1.952;2024-01-16T22:25:55;6.72;;;4.15;;
66127;SDS011;52925;52.436;-1.952;2024-01-16T22:27:17;5.95;;;4.57;;
66127;SDS011;52925;52.436;-1.952;2024-01-16T22:28:36;7.32;;;4.85;;
66127;SDS011;52925;52.436;-1.952;2024-01-16T22:30:02;7.07;;;4.78;;
66127;SDS011;52925;52.436;-1.952;2024-01-16T22:31:25;6.25;;;4.25;;
66127;SDS011;52925;52.436;-1.952;2024-01-16T22:32:46;6.82;;;4.28;;
66127;SDS011;52925;52.436;-1.952;2024-01-16T22:34:06;7.97;;;4.35;;
66127;SDS011;52925;52.436;-1.952;2024-01-16T22:35:27;4.60;;;3.78;;
66127;SDS011;52925;52.436;-1.952;2024-01-16T22:36:47;6.03;;;4.30;;